Shallotte, NC

5:19 AM EST on February 13, 2016 (GMT -0500)
Shallotte Point | | Change Station
CLOSE
Current Station
Personal Weather Station
Location: Shallotte, NC
Elevation: 42 ft
Nearby Weather Stations

Elev 42 ft 33.93 °N, 78.37 °W | Updated 4 seconds ago

Clear
Clear
29.4 °F
Feels Like 29 °F
N
0.0
Wind Variable Wind from NW
Gusts 1.0 mph

Today
High -- | Low -- °F
--% Chance of Precip.
Yesterday
High -- | Low -- °F
Precip. -- in
Pressure 30.11 in
Visibility 7.0 miles
Clouds Clear
Windchill 29 °F
Dew Point 28 °F
Humidity 96%
Rainfall 0.00 in
Snow Depth Not available.
7:00 AM 5:55 PM
Waxing Crescent, 29% visible
METAR KSUT 130955Z AUTO 00000KT 7SM CLR M01/M02 A3011 RMK AO2 T10141020
Pressure 30.11 in
Visibility 7.0 miles
Clouds Clear
Windchill 29 °F
Dew Point 28 °F
Humidity 96%
Rainfall 0.00 in
Snow Depth Not available.
7:00 AM 5:55 PM
Waxing Crescent, 29% visible
METAR KSUT 130955Z AUTO 00000KT 7SM CLR M01/M02 A3011 RMK AO2 T10141020

10-Day Weather Forecast

Almanac

Astronomy

Feb. 13, 2016 Rise Set
Actual Time
Civil Twilight
Nautical Twilight
Astronomical Twilight
Moon
Length of Visible Light
Length of Day
Tomorrow will be .
, % of the Moon is Illuminated

Today's Extremes

State Highs State Lows

Community

WunderPhotos

Upload Photos

1,892,536 photos uploaded!

WunderBlog® & News

Nearby

Air Quality

  Air Quality AQ Index Pollutant
Not available.

Snow Depth

Station Depth Elevation

Earthquake Activity

City Distance Mag. Time & Date
Minimum magnitude displayed is 2.5.

Coastal Water Temperatures

Place Temperature

Stations

Nearby Weather Stations

Station Location Temp. Windchill Dew Point Humidity Wind Precip. Elev Updated Type
                   

Watches & Warnings

There are currently no watches in effect.